sensor_id;sensor_type;location;lat;lon;timestamp;P1;durP1;ratioP1;P2;durP2;ratioP2
5688;SDS011;2869;50.432;8.680;2023-06-24T00:02:15;10.10;;;8.00;;
5688;SDS011;2869;50.432;8.680;2023-06-24T00:04:42;12.20;;;8.03;;
5688;SDS011;2869;50.432;8.680;2023-06-24T00:07:08;14.23;;;8.00;;
5688;SDS011;2869;50.432;8.680;2023-06-24T00:09:35;10.47;;;8.17;;
5688;SDS011;2869;50.432;8.680;2023-06-24T00:12:02;10.57;;;7.93;;
5688;SDS011;2869;50.432;8.680;2023-06-24T00:14:29;10.40;;;7.73;;
5688;SDS011;2869;50.432;8.680;2023-06-24T00:16:57;10.67;;;7.83;;
5688;SDS011;2869;50.432;8.680;2023-06-24T00:19:25;9.67;;;7.33;;
5688;SDS011;2869;50.432;8.680;2023-06-24T00:21:52;9.40;;;7.93;;
5688;SDS011;2869;50.432;8.680;2023-06-24T00:24:19;9.50;;;8.20;;
5688;SDS011;2869;50.432;8.680;2023-06-24T00:26:50;8.90;;;7.90;;
5688;SDS011;2869;50.432;8.680;2023-06-24T00:29:17;10.80;;;8.13;;
5688;SDS011;2869;50.432;8.680;2023-06-24T00:31:43;9.93;;;7.77;;
5688;SDS011;2869;50.432;8.680;2023-06-24T00:34:10;9.90;;;8.30;;
5688;SDS011;2869;50.432;8.680;2023-06-24T00:36:38;8.30;;;7.50;;
5688;SDS011;2869;50.432;8.680;2023-06-24T00:39:05;11.53;;;8.10;;
5688;SDS011;2869;50.432;8.680;2023-06-24T00:41:33;11.07;;;8.10;;
5688;SDS011;2869;50.432;8.680;2023-06-24T00:44:01;8.17;;;7.33;;
5688;SDS011;2869;50.432;8.680;2023-06-24T00:46:28;8.80;;;8.00;;
5688;SDS011;2869;50.432;8.680;2023-06-24T00:48:57;8.20;;;7.40;;
5688;SDS011;2869;50.432;8.680;2023-06-24T00:51:25;12.30;;;8.40;;
5688;SDS011;2869;50.432;8.680;2023-06-24T00:53:56;8.40;;;7.50;;
5688;SDS011;2869;50.432;8.680;2023-06-24T00:56:25;8.60;;;7.20;;
5688;SDS011;2869;50.432;8.680;2023-06-24T00:58:54;8.50;;;7.30;;
5688;SDS011;2869;50.432;8.680;2023-06-24T01:01:21;11.37;;;8.47;;
5688;SDS011;2869;50.432;8.680;2023-06-24T01:03:49;9.57;;;8.33;;
5688;SDS011;2869;50.432;8.680;2023-06-24T01:06:15;12.80;;;8.00;;
5688;SDS011;2869;50.432;8.680;2023-06-24T01:08:43;13.73;;;8.90;;
5688;SDS011;2869;50.432;8.680;2023-06-24T01:11:17;9.53;;;8.33;;
5688;SDS011;2869;50.432;8.680;2023-06-24T01:13:44;13.70;;;8.53;;
5688;SDS011;2869;50.432;8.680;2023-06-24T01:16:13;11.07;;;8.57;;
5688;SDS011;2869;50.432;8.680;2023-06-24T01:18:51;9.77;;;8.20;;
5688;SDS011;2869;50.432;8.680;2023-06-24T01:21:26;14.20;;;8.93;;
5688;SDS011;2869;50.432;8.680;2023-06-24T01:24:17;10.27;;;8.40;;
5688;SDS011;2869;50.432;8.680;2023-06-24T01:27:07;12.90;;;7.97;;
5688;SDS011;2869;50.432;8.680;2023-06-24T01:29:52;12.20;;;8.67;;
5688;SDS011;2869;50.432;8.680;2023-06-24T01:32:48;10.33;;;8.43;;
5688;SDS011;2869;50.432;8.680;2023-06-24T01:35:19;10.63;;;8.37;;
5688;SDS011;2869;50.432;8.680;2023-06-24T01:37:50;11.00;;;8.97;;
5688;SDS011;2869;50.432;8.680;2023-06-24T01:40:20;12.83;;;8.43;;
5688;SDS011;2869;50.432;8.680;2023-06-24T01:42:49;13.87;;;8.50;;
5688;SDS011;2869;50.432;8.680;2023-06-24T01:45:17;13.30;;;8.47;;
5688;SDS011;2869;50.432;8.680;2023-06-24T01:47:49;9.50;;;8.50;;
5688;SDS011;2869;50.432;8.680;2023-06-24T01:50:23;10.90;;;8.53;;
5688;SDS011;2869;50.432;8.680;2023-06-24T01:52:52;9.23;;;8.33;;
5688;SDS011;2869;50.432;8.680;2023-06-24T01:55:21;10.00;;;9.00;;
5688;SDS011;2869;50.432;8.680;2023-06-24T01:57:49;12.23;;;8.80;;
5688;SDS011;2869;50.432;8.680;2023-06-24T02:00:17;14.17;;;9.30;;
5688;SDS011;2869;50.432;8.680;2023-06-24T02:02:45;10.73;;;8.73;;
5688;SDS011;2869;50.432;8.680;2023-06-24T02:05:14;14.10;;;8.97;;
5688;SDS011;2869;50.432;8.680;2023-06-24T02:07:41;10.03;;;8.53;;
5688;SDS011;2869;50.432;8.680;2023-06-24T02:10:09;9.67;;;8.30;;
5688;SDS011;2869;50.432;8.680;2023-06-24T02:12:37;11.63;;;8.70;;
5688;SDS011;2869;50.432;8.680;2023-06-24T02:15:05;19.90;;;9.47;;
5688;SDS011;2869;50.432;8.680;2023-06-24T02:17:33;12.73;;;9.03;;
5688;SDS011;2869;50.432;8.680;2023-06-24T02:20:02;9.93;;;8.90;;
5688;SDS011;2869;50.432;8.680;2023-06-24T02:22:33;9.20;;;8.13;;
5688;SDS011;2869;50.432;8.680;2023-06-24T02:25:00;11.20;;;9.00;;
5688;SDS011;2869;50.432;8.680;2023-06-24T02:27:28;8.90;;;7.93;;
5688;SDS011;2869;50.432;8.680;2023-06-24T02:29:56;10.13;;;8.17;;
5688;SDS011;2869;50.432;8.680;2023-06-24T02:32:24;10.40;;;7.70;;
5688;SDS011;2869;50.432;8.680;2023-06-24T02:34:51;8.60;;;7.67;;
5688;SDS011;2869;50.432;8.680;2023-06-24T02:37:18;8.50;;;7.70;;
5688;SDS011;2869;50.432;8.680;2023-06-24T02:39:46;11.13;;;8.00;;
5688;SDS011;2869;50.432;8.680;2023-06-24T02:42:12;11.17;;;8.17;;
5688;SDS011;2869;50.432;8.680;2023-06-24T02:44:39;10.47;;;8.23;;
5688;SDS011;2869;50.432;8.680;2023-06-24T02:47:07;9.47;;;7.20;;
5688;SDS011;2869;50.432;8.680;2023-06-24T02:49:36;10.93;;;7.23;;
5688;SDS011;2869;50.432;8.680;2023-06-24T02:52:04;8.57;;;7.67;;
5688;SDS011;2869;50.432;8.680;2023-06-24T02:54:32;9.00;;;7.40;;
5688;SDS011;2869;50.432;8.680;2023-06-24T02:57:00;8.43;;;7.00;;
5688;SDS011;2869;50.432;8.680;2023-06-24T02:59:27;7.77;;;7.07;;
5688;SDS011;2869;50.432;8.680;2023-06-24T03:01:54;8.73;;;7.83;;
5688;SDS011;2869;50.432;8.680;2023-06-24T03:04:21;14.53;;;7.80;;
5688;SDS011;2869;50.432;8.680;2023-06-24T03:06:48;11.23;;;7.50;;
5688;SDS011;2869;50.432;8.680;2023-06-24T03:09:16;9.27;;;7.60;;
5688;SDS011;2869;50.432;8.680;2023-06-24T03:11:43;14.00;;;7.57;;
5688;SDS011;2869;50.432;8.680;2023-06-24T03:14:11;12.97;;;7.60;;
5688;SDS011;2869;50.432;8.680;2023-06-24T03:16:38;13.00;;;8.23;;
5688;SDS011;2869;50.432;8.680;2023-06-24T03:19:05;10.57;;;8.20;;
5688;SDS011;2869;50.432;8.680;2023-06-24T03:21:32;9.80;;;7.83;;
5688;SDS011;2869;50.432;8.680;2023-06-24T03:23:59;10.00;;;8.23;;
5688;SDS011;2869;50.432;8.680;2023-06-24T03:26:30;9.10;;;8.10;;
5688;SDS011;2869;50.432;8.680;2023-06-24T03:28:58;14.10;;;8.03;;
5688;SDS011;2869;50.432;8.680;2023-06-24T03:31:26;12.67;;;8.60;;
5688;SDS011;2869;50.432;8.680;2023-06-24T03:33:52;11.53;;;8.03;;
5688;SDS011;2869;50.432;8.680;2023-06-24T03:36:19;12.30;;;8.13;;
5688;SDS011;2869;50.432;8.680;2023-06-24T03:38:46;8.87;;;7.63;;
5688;SDS011;2869;50.432;8.680;2023-06-24T03:41:12;15.60;;;8.67;;
5688;SDS011;2869;50.432;8.680;2023-06-24T03:43:39;9.50;;;8.40;;
5688;SDS011;2869;50.432;8.680;2023-06-24T03:46:06;12.90;;;8.70;;
5688;SDS011;2869;50.432;8.680;2023-06-24T03:48:34;14.47;;;8.20;;
5688;SDS011;2869;50.432;8.680;2023-06-24T03:51:01;13.80;;;8.40;;
5688;SDS011;2869;50.432;8.680;2023-06-24T03:53:28;9.17;;;8.20;;
5688;SDS011;2869;50.432;8.680;2023-06-24T03:55:55;11.23;;;8.60;;
5688;SDS011;2869;50.432;8.680;2023-06-24T03:58:21;12.70;;;8.40;;
5688;SDS011;2869;50.432;8.680;2023-06-24T04:00:48;17.60;;;8.60;;
5688;SDS011;2869;50.432;8.680;2023-06-24T04:03:15;9.23;;;8.17;;
5688;SDS011;2869;50.432;8.680;2023-06-24T04:05:44;11.77;;;9.40;;
5688;SDS011;2869;50.432;8.680;2023-06-24T04:08:11;10.87;;;9.50;;
5688;SDS011;2869;50.432;8.680;2023-06-24T04:10:37;18.73;;;9.87;;
5688;SDS011;2869;50.432;8.680;2023-06-24T04:13:04;14.70;;;10.17;;
5688;SDS011;2869;50.432;8.680;2023-06-24T04:15:30;12.23;;;10.63;;
5688;SDS011;2869;50.432;8.680;2023-06-24T04:17:57;14.93;;;10.03;;
5688;SDS011;2869;50.432;8.680;2023-06-24T04:20:25;17.37;;;10.57;;
5688;SDS011;2869;50.432;8.680;2023-06-24T04:22:53;16.97;;;10.80;;
5688;SDS011;2869;50.432;8.680;2023-06-24T04:25:19;15.20;;;10.33;;
5688;SDS011;2869;50.432;8.680;2023-06-24T04:27:46;14.63;;;10.77;;
5688;SDS011;2869;50.432;8.680;2023-06-24T04:30:12;12.43;;;11.13;;
5688;SDS011;2869;50.432;8.680;2023-06-24T04:32:39;13.53;;;11.40;;
5688;SDS011;2869;50.432;8.680;2023-06-24T04:35:06;19.70;;;11.20;;
5688;SDS011;2869;50.432;8.680;2023-06-24T04:37:33;17.23;;;11.90;;
5688;SDS011;2869;50.432;8.680;2023-06-24T04:40:01;12.47;;;10.70;;
5688;SDS011;2869;50.432;8.680;2023-06-24T04:42:28;17.70;;;11.70;;
5688;SDS011;2869;50.432;8.680;2023-06-24T04:44:55;14.37;;;11.00;;
5688;SDS011;2869;50.432;8.680;2023-06-24T04:47:22;11.97;;;9.57;;
5688;SDS011;2869;50.432;8.680;2023-06-24T04:49:48;14.83;;;10.97;;
5688;SDS011;2869;50.432;8.680;2023-06-24T04:52:15;15.60;;;11.20;;
5688;SDS011;2869;50.432;8.680;2023-06-24T04:54:42;11.73;;;10.37;;
5688;SDS011;2869;50.432;8.680;2023-06-24T04:57:22;8.63;;;7.73;;
5688;SDS011;2869;50.432;8.680;2023-06-24T04:59:49;9.27;;;8.37;;
5688;SDS011;2869;50.432;8.680;2023-06-24T05:02:16;10.20;;;7.73;;
5688;SDS011;2869;50.432;8.680;2023-06-24T05:04:43;11.10;;;8.43;;
5688;SDS011;2869;50.432;8.680;2023-06-24T05:07:12;11.40;;;7.60;;
5688;SDS011;2869;50.432;8.680;2023-06-24T05:09:39;9.90;;;8.30;;
5688;SDS011;2869;50.432;8.680;2023-06-24T05:12:06;8.43;;;7.17;;
5688;SDS011;2869;50.432;8.680;2023-06-24T05:14:35;8.73;;;7.63;;
5688;SDS011;2869;50.432;8.680;2023-06-24T05:17:03;11.40;;;8.50;;
5688;SDS011;2869;50.432;8.680;2023-06-24T05:19:29;11.93;;;9.03;;
5688;SDS011;2869;50.432;8.680;2023-06-24T05:21:56;17.93;;;8.10;;
5688;SDS011;2869;50.432;8.680;2023-06-24T05:24:23;11.93;;;9.57;;
5688;SDS011;2869;50.432;8.680;2023-06-24T05:26:50;10.60;;;8.70;;
5688;SDS011;2869;50.432;8.680;2023-06-24T05:29:17;11.10;;;8.13;;
5688;SDS011;2869;50.432;8.680;2023-06-24T05:31:45;10.83;;;7.43;;
5688;SDS011;2869;50.432;8.680;2023-06-24T05:34:12;9.63;;;8.13;;
5688;SDS011;2869;50.432;8.680;2023-06-24T05:36:39;17.17;;;9.23;;
5688;SDS011;2869;50.432;8.680;2023-06-24T05:39:05;9.70;;;8.70;;
5688;SDS011;2869;50.432;8.680;2023-06-24T05:41:33;12.83;;;9.90;;
5688;SDS011;2869;50.432;8.680;2023-06-24T05:44:03;11.77;;;8.33;;
5688;SDS011;2869;50.432;8.680;2023-06-24T05:46:30;14.37;;;10.77;;
5688;SDS011;2869;50.432;8.680;2023-06-24T05:48:58;13.70;;;10.43;;
5688;SDS011;2869;50.432;8.680;2023-06-24T05:51:25;12.07;;;10.80;;
5688;SDS011;2869;50.432;8.680;2023-06-24T05:53:52;18.30;;;10.50;;
5688;SDS011;2869;50.432;8.680;2023-06-24T05:56:19;13.93;;;12.40;;
5688;SDS011;2869;50.432;8.680;2023-06-24T05:58:46;16.33;;;11.80;;
5688;SDS011;2869;50.432;8.680;2023-06-24T06:01:13;15.83;;;13.10;;
5688;SDS011;2869;50.432;8.680;2023-06-24T06:03:39;19.00;;;12.97;;
5688;SDS011;2869;50.432;8.680;2023-06-24T06:06:08;13.17;;;11.77;;
5688;SDS011;2869;50.432;8.680;2023-06-24T06:08:34;17.30;;;11.57;;
5688;SDS011;2869;50.432;8.680;2023-06-24T06:11:01;17.47;;;12.63;;
5688;SDS011;2869;50.432;8.680;2023-06-24T06:13:28;14.27;;;12.23;;
5688;SDS011;2869;50.432;8.680;2023-06-24T06:15:54;16.60;;;11.80;;
5688;SDS011;2869;50.432;8.680;2023-06-24T06:18:21;18.87;;;12.90;;
5688;SDS011;2869;50.432;8.680;2023-06-24T06:20:48;18.03;;;12.97;;
5688;SDS011;2869;50.432;8.680;2023-06-24T06:23:16;17.47;;;12.07;;
5688;SDS011;2869;50.432;8.680;2023-06-24T06:25:42;14.60;;;12.77;;
5688;SDS011;2869;50.432;8.680;2023-06-24T06:28:09;12.27;;;10.60;;
5688;SDS011;2869;50.432;8.680;2023-06-24T06:30:36;12.90;;;10.80;;
5688;SDS011;2869;50.432;8.680;2023-06-24T06:33:03;16.50;;;11.20;;
5688;SDS011;2869;50.432;8.680;2023-06-24T06:35:29;15.00;;;11.03;;
5688;SDS011;2869;50.432;8.680;2023-06-24T06:37:56;13.03;;;11.00;;
5688;SDS011;2869;50.432;8.680;2023-06-24T06:40:25;13.33;;;10.30;;
5688;SDS011;2869;50.432;8.680;2023-06-24T06:42:53;14.10;;;10.90;;
5688;SDS011;2869;50.432;8.680;2023-06-24T06:45:20;13.43;;;9.50;;
5688;SDS011;2869;50.432;8.680;2023-06-24T06:47:47;11.67;;;9.50;;
5688;SDS011;2869;50.432;8.680;2023-06-24T06:50:14;11.83;;;9.47;;
5688;SDS011;2869;50.432;8.680;2023-06-24T06:52:41;11.60;;;10.13;;
5688;SDS011;2869;50.432;8.680;2023-06-24T06:55:09;13.33;;;9.60;;
5688;SDS011;2869;50.432;8.680;2023-06-24T06:57:37;12.23;;;10.40;;
5688;SDS011;2869;50.432;8.680;2023-06-24T07:00:04;10.77;;;9.40;;
5688;SDS011;2869;50.432;8.680;2023-06-24T07:02:31;15.87;;;10.87;;
5688;SDS011;2869;50.432;8.680;2023-06-24T07:04:58;13.43;;;10.80;;
5688;SDS011;2869;50.432;8.680;2023-06-24T07:07:25;15.70;;;10.60;;
5688;SDS011;2869;50.432;8.680;2023-06-24T07:09:52;15.80;;;11.13;;
5688;SDS011;2869;50.432;8.680;2023-06-24T07:12:19;15.70;;;11.30;;
5688;SDS011;2869;50.432;8.680;2023-06-24T07:14:47;17.60;;;11.47;;
5688;SDS011;2869;50.432;8.680;2023-06-24T07:17:13;14.73;;;10.30;;
5688;SDS011;2869;50.432;8.680;2023-06-24T07:19:40;13.10;;;11.60;;
5688;SDS011;2869;50.432;8.680;2023-06-24T07:22:07;11.43;;;10.23;;
5688;SDS011;2869;50.432;8.680;2023-06-24T07:24:33;12.80;;;9.60;;
5688;SDS011;2869;50.432;8.680;2023-06-24T07:27:00;13.67;;;9.67;;
5688;SDS011;2869;50.432;8.680;2023-06-24T07:29:28;11.20;;;10.10;;
5688;SDS011;2869;50.432;8.680;2023-06-24T07:31:56;10.70;;;9.60;;
5688;SDS011;2869;50.432;8.680;2023-06-24T07:34:23;14.03;;;10.40;;
5688;SDS011;2869;50.432;8.680;2023-06-24T07:36:49;15.20;;;10.50;;
5688;SDS011;2869;50.432;8.680;2023-06-24T07:39:16;15.60;;;9.97;;
5688;SDS011;2869;50.432;8.680;2023-06-24T07:41:43;12.60;;;9.67;;
5688;SDS011;2869;50.432;8.680;2023-06-24T07:44:09;17.77;;;10.43;;
5688;SDS011;2869;50.432;8.680;2023-06-24T07:46:36;12.40;;;9.20;;
5688;SDS011;2869;50.432;8.680;2023-06-24T07:49:04;10.60;;;9.40;;
5688;SDS011;2869;50.432;8.680;2023-06-24T07:51:30;10.73;;;9.60;;
5688;SDS011;2869;50.432;8.680;2023-06-24T07:54:00;12.60;;;10.40;;
5688;SDS011;2869;50.432;8.680;2023-06-24T07:56:26;10.50;;;8.90;;
5688;SDS011;2869;50.432;8.680;2023-06-24T07:58:53;11.13;;;8.70;;
5688;SDS011;2869;50.432;8.680;2023-06-24T08:01:19;12.23;;;9.37;;
5688;SDS011;2869;50.432;8.680;2023-06-24T08:03:46;9.97;;;8.77;;
5688;SDS011;2869;50.432;8.680;2023-06-24T08:06:14;12.50;;;8.50;;
5688;SDS011;2869;50.432;8.680;2023-06-24T08:08:41;13.33;;;8.40;;
5688;SDS011;2869;50.432;8.680;2023-06-24T08:11:07;10.43;;;8.87;;
5688;SDS011;2869;50.432;8.680;2023-06-24T08:13:34;12.20;;;8.60;;
5688;SDS011;2869;50.432;8.680;2023-06-24T08:16:00;11.30;;;8.70;;
5688;SDS011;2869;50.432;8.680;2023-06-24T08:18:27;12.23;;;8.97;;
5688;SDS011;2869;50.432;8.680;2023-06-24T08:20:54;13.27;;;8.90;;
5688;SDS011;2869;50.432;8.680;2023-06-24T08:23:22;9.90;;;8.50;;
5688;SDS011;2869;50.432;8.680;2023-06-24T08:25:48;13.37;;;9.30;;
5688;SDS011;2869;50.432;8.680;2023-06-24T08:28:15;12.23;;;9.10;;
5688;SDS011;2869;50.432;8.680;2023-06-24T08:30:42;11.70;;;9.17;;
5688;SDS011;2869;50.432;8.680;2023-06-24T08:33:08;12.63;;;8.20;;
5688;SDS011;2869;50.432;8.680;2023-06-24T08:35:36;12.47;;;8.60;;
5688;SDS011;2869;50.432;8.680;2023-06-24T08:38:02;11.10;;;8.90;;
5688;SDS011;2869;50.432;8.680;2023-06-24T08:40:30;9.60;;;7.95;;
5688;SDS011;2869;50.432;8.680;2023-06-24T08:42:57;11.57;;;8.70;;
5688;SDS011;2869;50.432;8.680;2023-06-24T08:45:24;9.00;;;7.80;;
5688;SDS011;2869;50.432;8.680;2023-06-24T08:47:51;17.13;;;8.13;;
5688;SDS011;2869;50.432;8.680;2023-06-24T08:50:20;13.67;;;8.70;;
5688;SDS011;2869;50.432;8.680;2023-06-24T08:52:53;9.27;;;7.67;;
5688;SDS011;2869;50.432;8.680;2023-06-24T08:55:22;10.57;;;8.10;;
5688;SDS011;2869;50.432;8.680;2023-06-24T08:57:50;12.47;;;8.33;;
5688;SDS011;2869;50.432;8.680;2023-06-24T09:00:17;8.37;;;7.33;;
5688;SDS011;2869;50.432;8.680;2023-06-24T09:02:44;12.13;;;7.57;;
5688;SDS011;2869;50.432;8.680;2023-06-24T09:05:11;11.40;;;7.07;;
5688;SDS011;2869;50.432;8.680;2023-06-24T09:07:37;11.83;;;8.23;;
5688;SDS011;2869;50.432;8.680;2023-06-24T09:10:04;7.97;;;6.30;;
5688;SDS011;2869;50.432;8.680;2023-06-24T09:12:32;12.00;;;8.57;;
5688;SDS011;2869;50.432;8.680;2023-06-24T09:15:00;11.47;;;7.10;;
5688;SDS011;2869;50.432;8.680;2023-06-24T09:17:28;9.83;;;8.07;;
5688;SDS011;2869;50.432;8.680;2023-06-24T09:19:55;9.93;;;7.40;;
5688;SDS011;2869;50.432;8.680;2023-06-24T09:22:30;8.30;;;7.17;;
5688;SDS011;2869;50.432;8.680;2023-06-24T09:24:57;9.90;;;7.50;;
5688;SDS011;2869;50.432;8.680;2023-06-24T09:27:30;7.80;;;6.43;;
5688;SDS011;2869;50.432;8.680;2023-06-24T09:29:57;8.70;;;6.43;;
5688;SDS011;2869;50.432;8.680;2023-06-24T09:32:27;7.80;;;6.50;;
5688;SDS011;2869;50.432;8.680;2023-06-24T09:34:55;6.50;;;5.43;;
5688;SDS011;2869;50.432;8.680;2023-06-24T09:37:22;8.70;;;5.33;;
5688;SDS011;2869;50.432;8.680;2023-06-24T09:39:49;11.80;;;6.30;;
5688;SDS011;2869;50.432;8.680;2023-06-24T09:42:15;6.40;;;5.60;;
5688;SDS011;2869;50.432;8.680;2023-06-24T09:44:52;5.80;;;5.23;;
5688;SDS011;2869;50.432;8.680;2023-06-24T09:47:19;6.50;;;5.97;;
5688;SDS011;2869;50.432;8.680;2023-06-24T09:49:51;7.00;;;6.30;;
5688;SDS011;2869;50.432;8.680;2023-06-24T09:52:17;10.20;;;6.80;;
5688;SDS011;2869;50.432;8.680;2023-06-24T09:54:46;6.93;;;5.90;;
5688;SDS011;2869;50.432;8.680;2023-06-24T09:57:15;6.47;;;5.23;;
5688;SDS011;2869;50.432;8.680;2023-06-24T09:59:45;8.10;;;6.27;;
5688;SDS011;2869;50.432;8.680;2023-06-24T10:02:12;6.27;;;5.63;;
5688;SDS011;2869;50.432;8.680;2023-06-24T10:04:41;8.90;;;6.10;;
5688;SDS011;2869;50.432;8.680;2023-06-24T10:07:10;10.70;;;6.80;;
5688;SDS011;2869;50.432;8.680;2023-06-24T10:09:38;8.67;;;6.67;;
5688;SDS011;2869;50.432;8.680;2023-06-24T10:12:04;6.53;;;5.83;;
5688;SDS011;2869;50.432;8.680;2023-06-24T10:14:32;9.33;;;6.20;;
5688;SDS011;2869;50.432;8.680;2023-06-24T10:17:02;6.47;;;5.33;;
5688;SDS011;2869;50.432;8.680;2023-06-24T10:19:29;7.27;;;6.40;;
5688;SDS011;2869;50.432;8.680;2023-06-24T10:21:57;7.00;;;5.80;;
5688;SDS011;2869;50.432;8.680;2023-06-24T10:24:29;10.00;;;6.23;;
5688;SDS011;2869;50.432;8.680;2023-06-24T10:27:00;7.50;;;5.93;;
5688;SDS011;2869;50.432;8.680;2023-06-24T10:29:31;7.20;;;5.73;;
5688;SDS011;2869;50.432;8.680;2023-06-24T10:32:02;8.13;;;6.60;;
5688;SDS011;2869;50.432;8.680;2023-06-24T10:34:33;7.33;;;6.00;;
5688;SDS011;2869;50.432;8.680;2023-06-24T10:37:07;6.93;;;5.83;;
5688;SDS011;2869;50.432;8.680;2023-06-24T10:39:48;13.33;;;6.37;;
5688;SDS011;2869;50.432;8.680;2023-06-24T10:42:31;7.23;;;5.90;;
5688;SDS011;2869;50.432;8.680;2023-06-24T10:45:00;9.50;;;6.50;;
5688;SDS011;2869;50.432;8.680;2023-06-24T10:47:28;8.20;;;6.60;;
5688;SDS011;2869;50.432;8.680;2023-06-24T10:49:56;8.80;;;6.70;;
5688;SDS011;2869;50.432;8.680;2023-06-24T10:52:22;9.30;;;7.60;;
5688;SDS011;2869;50.432;8.680;2023-06-24T10:54:51;7.00;;;6.03;;
5688;SDS011;2869;50.432;8.680;2023-06-24T10:57:22;10.20;;;5.93;;
5688;SDS011;2869;50.432;8.680;2023-06-24T10:59:50;8.00;;;5.90;;
5688;SDS011;2869;50.432;8.680;2023-06-24T11:02:17;7.67;;;6.50;;
5688;SDS011;2869;50.432;8.680;2023-06-24T11:04:45;19.97;;;6.60;;
5688;SDS011;2869;50.432;8.680;2023-06-24T11:07:13;9.57;;;6.97;;
5688;SDS011;2869;50.432;8.680;2023-06-24T11:09:40;11.00;;;5.97;;
5688;SDS011;2869;50.432;8.680;2023-06-24T11:12:10;7.50;;;6.40;;
5688;SDS011;2869;50.432;8.680;2023-06-24T11:14:37;7.17;;;6.00;;
5688;SDS011;2869;50.432;8.680;2023-06-24T11:17:04;7.20;;;6.50;;
5688;SDS011;2869;50.432;8.680;2023-06-24T11:19:32;6.97;;;5.23;;
5688;SDS011;2869;50.432;8.680;2023-06-24T11:22:01;9.50;;;5.70;;
5688;SDS011;2869;50.432;8.680;2023-06-24T11:24:28;7.43;;;5.90;;
5688;SDS011;2869;50.432;8.680;2023-06-24T11:26:55;7.30;;;6.20;;
5688;SDS011;2869;50.432;8.680;2023-06-24T11:29:24;10.63;;;4.80;;
5688;SDS011;2869;50.432;8.680;2023-06-24T11:31:54;11.27;;;5.80;;
5688;SDS011;2869;50.432;8.680;2023-06-24T11:34:20;5.90;;;5.20;;
5688;SDS011;2869;50.432;8.680;2023-06-24T11:36:47;9.57;;;6.93;;
5688;SDS011;2869;50.432;8.680;2023-06-24T11:39:20;6.97;;;6.27;;
5688;SDS011;2869;50.432;8.680;2023-06-24T11:41:48;10.80;;;6.13;;
5688;SDS011;2869;50.432;8.680;2023-06-24T11:44:16;10.90;;;5.97;;
5688;SDS011;2869;50.432;8.680;2023-06-24T11:46:45;9.50;;;6.30;;
5688;SDS011;2869;50.432;8.680;2023-06-24T11:49:12;12.83;;;5.67;;
5688;SDS011;2869;50.432;8.680;2023-06-24T11:51:45;11.10;;;5.87;;
5688;SDS011;2869;50.432;8.680;2023-06-24T11:54:14;6.93;;;5.83;;
5688;SDS011;2869;50.432;8.680;2023-06-24T11:56:42;7.40;;;5.40;;
5688;SDS011;2869;50.432;8.680;2023-06-24T11:59:17;7.67;;;5.90;;
5688;SDS011;2869;50.432;8.680;2023-06-24T12:01:46;7.20;;;5.97;;
5688;SDS011;2869;50.432;8.680;2023-06-24T12:04:19;15.70;;;6.80;;
5688;SDS011;2869;50.432;8.680;2023-06-24T12:06:46;7.70;;;5.67;;
5688;SDS011;2869;50.432;8.680;2023-06-24T12:09:13;7.33;;;5.57;;
5688;SDS011;2869;50.432;8.680;2023-06-24T12:11:41;7.80;;;4.97;;
5688;SDS011;2869;50.432;8.680;2023-06-24T12:14:07;6.57;;;5.68;;
5688;SDS011;2869;50.432;8.680;2023-06-24T12:16:34;9.68;;;5.13;;
5688;SDS011;2869;50.432;8.680;2023-06-24T12:19:02;5.57;;;5.07;;
5688;SDS011;2869;50.432;8.680;2023-06-24T12:21:28;6.17;;;5.10;;
5688;SDS011;2869;50.432;8.680;2023-06-24T12:23:55;6.30;;;5.30;;
5688;SDS011;2869;50.432;8.680;2023-06-24T12:26:22;7.63;;;5.30;;
5688;SDS011;2869;50.432;8.680;2023-06-24T12:28:48;5.97;;;5.40;;
5688;SDS011;2869;50.432;8.680;2023-06-24T12:31:15;6.70;;;5.20;;
5688;SDS011;2869;50.432;8.680;2023-06-24T12:33:41;6.03;;;5.47;;
5688;SDS011;2869;50.432;8.680;2023-06-24T12:36:09;7.00;;;5.53;;
5688;SDS011;2869;50.432;8.680;2023-06-24T12:38:36;9.23;;;6.20;;
5688;SDS011;2869;50.432;8.680;2023-06-24T12:41:03;6.47;;;5.77;;
5688;SDS011;2869;50.432;8.680;2023-06-24T12:43:30;5.20;;;4.70;;
5688;SDS011;2869;50.432;8.680;2023-06-24T12:45:57;6.27;;;5.57;;
5688;SDS011;2869;50.432;8.680;2023-06-24T12:48:23;6.27;;;5.57;;
5688;SDS011;2869;50.432;8.680;2023-06-24T12:50:50;6.30;;;5.50;;
5688;SDS011;2869;50.432;8.680;2023-06-24T12:53:19;5.73;;;5.17;;
5688;SDS011;2869;50.432;8.680;2023-06-24T12:55:46;7.82;;;5.00;;
5688;SDS011;2869;50.432;8.680;2023-06-24T12:58:13;8.27;;;5.32;;
5688;SDS011;2869;50.432;8.680;2023-06-24T13:00:40;6.97;;;4.90;;
5688;SDS011;2869;50.432;8.680;2023-06-24T13:03:07;11.10;;;5.97;;
5688;SDS011;2869;50.432;8.680;2023-06-24T13:05:33;8.20;;;5.07;;
5688;SDS011;2869;50.432;8.680;2023-06-24T13:08:00;6.57;;;5.30;;
5688;SDS011;2869;50.432;8.680;2023-06-24T13:10:28;6.23;;;5.50;;
5688;SDS011;2869;50.432;8.680;2023-06-24T13:12:54;10.87;;;7.10;;
5688;SDS011;2869;50.432;8.680;2023-06-24T13:15:21;12.37;;;7.20;;
5688;SDS011;2869;50.432;8.680;2023-06-24T13:17:49;10.00;;;5.93;;
5688;SDS011;2869;50.432;8.680;2023-06-24T13:20:15;9.00;;;5.30;;
5688;SDS011;2869;50.432;8.680;2023-06-24T13:22:42;6.47;;;5.87;;
5688;SDS011;2869;50.432;8.680;2023-06-24T13:25:09;11.33;;;5.50;;
5688;SDS011;2869;50.432;8.680;2023-06-24T13:27:37;8.37;;;6.30;;
5688;SDS011;2869;50.432;8.680;2023-06-24T13:30:04;6.27;;;5.67;;
5688;SDS011;2869;50.432;8.680;2023-06-24T13:32:31;7.70;;;5.57;;
5688;SDS011;2869;50.432;8.680;2023-06-24T13:34:58;8.60;;;5.83;;
5688;SDS011;2869;50.432;8.680;2023-06-24T13:37:25;5.70;;;5.20;;
5688;SDS011;2869;50.432;8.680;2023-06-24T13:39:51;10.10;;;5.37;;
5688;SDS011;2869;50.432;8.680;2023-06-24T13:42:18;6.27;;;5.50;;
5688;SDS011;2869;50.432;8.680;2023-06-24T13:44:46;6.10;;;5.13;;
5688;SDS011;2869;50.432;8.680;2023-06-24T13:47:12;7.00;;;5.47;;
5688;SDS011;2869;50.432;8.680;2023-06-24T13:49:39;6.27;;;5.47;;
5688;SDS011;2869;50.432;8.680;2023-06-24T13:52:06;5.70;;;5.10;;
5688;SDS011;2869;50.432;8.680;2023-06-24T13:54:33;8.80;;;6.23;;
5688;SDS011;2869;50.432;8.680;2023-06-24T13:57:00;7.50;;;5.40;;
5688;SDS011;2869;50.432;8.680;2023-06-24T13:59:26;10.83;;;5.40;;
5688;SDS011;2869;50.432;8.680;2023-06-24T14:01:54;5.93;;;5.10;;
5688;SDS011;2869;50.432;8.680;2023-06-24T14:04:21;6.10;;;5.50;;
5688;SDS011;2869;50.432;8.680;2023-06-24T14:06:48;6.80;;;4.97;;
5688;SDS011;2869;50.432;8.680;2023-06-24T14:09:15;7.13;;;4.87;;
5688;SDS011;2869;50.432;8.680;2023-06-24T14:11:41;8.97;;;5.47;;
5688;SDS011;2869;50.432;8.680;2023-06-24T14:14:08;8.05;;;4.63;;
5688;SDS011;2869;50.432;8.680;2023-06-24T14:16:35;6.70;;;5.67;;
5688;SDS011;2869;50.432;8.680;2023-06-24T14:19:03;6.07;;;5.50;;
5688;SDS011;2869;50.432;8.680;2023-06-24T14:21:29;6.57;;;5.30;;
5688;SDS011;2869;50.432;8.680;2023-06-24T14:23:56;12.13;;;5.33;;
5688;SDS011;2869;50.432;8.680;2023-06-24T14:26:23;5.63;;;4.90;;
5688;SDS011;2869;50.432;8.680;2023-06-24T14:28:50;8.60;;;5.70;;
5688;SDS011;2869;50.432;8.680;2023-06-24T14:31:16;9.93;;;5.20;;
5688;SDS011;2869;50.432;8.680;2023-06-24T14:33:43;5.70;;;5.20;;
5688;SDS011;2869;50.432;8.680;2023-06-24T14:36:11;8.60;;;5.23;;
5688;SDS011;2869;50.432;8.680;2023-06-24T14:38:38;5.90;;;5.30;;
5688;SDS011;2869;50.432;8.680;2023-06-24T14:41:06;5.57;;;5.07;;
5688;SDS011;2869;50.432;8.680;2023-06-24T14:43:33;7.17;;;5.50;;
5688;SDS011;2869;50.432;8.680;2023-06-24T14:46:00;7.23;;;5.53;;
5688;SDS011;2869;50.432;8.680;2023-06-24T14:48:27;5.90;;;5.30;;
5688;SDS011;2869;50.432;8.680;2023-06-24T14:50:53;5.63;;;5.10;;
5688;SDS011;2869;50.432;8.680;2023-06-24T14:53:21;7.10;;;5.63;;
5688;SDS011;2869;50.432;8.680;2023-06-24T14:55:48;5.63;;;5.10;;
5688;SDS011;2869;50.432;8.680;2023-06-24T14:58:14;5.93;;;5.30;;
5688;SDS011;2869;50.432;8.680;2023-06-24T15:00:41;7.10;;;5.00;;
5688;SDS011;2869;50.432;8.680;2023-06-24T15:03:08;5.80;;;5.03;;
5688;SDS011;2869;50.432;8.680;2023-06-24T15:05:34;7.80;;;5.67;;
5688;SDS011;2869;50.432;8.680;2023-06-24T15:08:01;8.77;;;5.10;;
5688;SDS011;2869;50.432;8.680;2023-06-24T15:10:29;5.43;;;4.60;;